createdAt,value
2018-11-27T00:00:33.204Z,64.80
2018-11-27T00:02:59.486Z,64.70
2018-11-27T00:05:25.772Z,64.70
2018-11-27T00:07:52.747Z,64.80
2018-11-27T00:10:19.060Z,64.80
2018-11-27T00:12:45.341Z,64.70
2018-11-27T00:15:11.633Z,64.70
2018-11-27T00:17:37.916Z,64.70
2018-11-27T00:20:04.204Z,64.80
2018-11-27T00:22:30.525Z,64.80
2018-11-27T00:24:56.745Z,64.80
2018-11-27T00:27:22.991Z,65.10
2018-11-27T00:29:49.208Z,64.90
2018-11-27T00:32:15.477Z,65.20
2018-11-27T00:34:41.711Z,65.20
2018-11-27T00:37:08.000Z,65.20
2018-11-27T00:39:34.220Z,65.20
2018-11-27T00:42:00.490Z,65.20
2018-11-27T00:44:26.736Z,65.30
2018-11-27T00:46:53.771Z,65.20
2018-11-27T00:49:20.018Z,65.20
2018-11-27T00:51:47.001Z,65.10
2018-11-27T00:54:13.245Z,65.00
2018-11-27T00:56:39.501Z,65.20
2018-11-27T00:59:05.873Z,65.20
2018-11-27T01:01:32.104Z,65.40
2018-11-27T01:03:58.396Z,65.40
2018-11-27T01:06:24.617Z,65.20
2018-11-27T01:08:50.885Z,65.20
2018-11-27T01:11:17.159Z,65.20
2018-11-27T01:13:43.420Z,65.20
2018-11-27T01:16:10.416Z,65.30
2018-11-27T01:18:36.691Z,65.20
2018-11-27T01:21:03.743Z,65.20
2018-11-27T01:23:30.108Z,65.20
2018-11-27T01:25:56.364Z,65.20
2018-11-27T01:28:23.362Z,65.30
2018-11-27T01:30:49.617Z,65.30
2018-11-27T01:33:15.869Z,65.20
2018-11-27T01:35:42.210Z,65.50
2018-11-27T01:38:08.473Z,65.30
2018-11-27T01:40:34.740Z,65.30
2018-11-27T01:43:00.989Z,65.20
2018-11-27T01:45:27.296Z,65.30
2018-11-27T01:47:54.350Z,65.40
2018-11-27T01:50:20.659Z,65.40
2018-11-27T01:52:46.937Z,65.40
2018-11-27T01:55:13.983Z,65.40
2018-11-27T01:57:41.038Z,65.40
2018-11-27T02:00:08.093Z,65.20
2018-11-27T02:02:34.381Z,65.20
2018-11-27T02:05:00.672Z,65.20
2018-11-27T02:07:26.930Z,65.30
2018-11-27T02:09:53.297Z,65.30
2018-11-27T02:12:20.284Z,65.10
2018-11-27T02:14:46.545Z,65.00
2018-11-27T02:17:12.848Z,65.20
2018-11-27T02:19:39.145Z,65.00
2018-11-27T02:22:05.489Z,65.10
2018-11-27T02:24:31.794Z,65.00
2018-11-27T02:26:58.835Z,65.20
2018-11-27T02:29:25.834Z,64.90
2018-11-27T02:31:52.119Z,64.90
2018-11-27T02:34:18.396Z,64.80
2018-11-27T02:36:44.671Z,64.60
2018-11-27T02:39:11.681Z,64.70
2018-11-27T02:41:38.741Z,64.90
2018-11-27T02:44:05.062Z,65.00
2018-11-27T02:46:31.334Z,65.00
2018-11-27T02:48:58.404Z,65.00
2018-11-27T02:51:24.716Z,65.00
2018-11-27T02:53:51.017Z,65.00
2018-11-27T02:56:17.244Z,65.10
2018-11-27T02:58:43.552Z,65.20
2018-11-27T03:01:09.774Z,65.70
2018-11-27T03:03:36.021Z,64.80
2018-11-27T03:06:02.308Z,65.10
2018-11-27T03:08:28.517Z,65.00
2018-11-27T03:10:54.766Z,65.00
2018-11-27T03:13:20.996Z,65.00
2018-11-27T03:15:47.248Z,65.10
2018-11-27T03:18:13.545Z,65.00
2018-11-27T03:20:39.833Z,64.90
2018-11-27T03:23:06.871Z,64.90
2018-11-27T03:25:33.860Z,64.70
2018-11-27T03:28:00.152Z,64.70
2018-11-27T03:30:28.104Z,64.90
2018-11-27T03:32:55.125Z,65.30
2018-11-27T03:35:21.375Z,64.80
2018-11-27T03:37:47.760Z,64.80
2018-11-27T03:40:13.984Z,64.90
2018-11-27T03:42:40.266Z,64.90
2018-11-27T03:45:06.608Z,64.60
2018-11-27T03:47:33.586Z,64.70
2018-11-27T03:49:59.824Z,64.50
2018-11-27T03:52:26.073Z,64.80
2018-11-27T03:54:52.343Z,64.70
2018-11-27T03:57:18.631Z,64.60
2018-11-27T03:59:44.860Z,64.50
2018-11-27T04:02:11.102Z,64.00
2018-11-27T04:04:37.341Z,64.20
2018-11-27T04:07:04.334Z,64.00
2018-11-27T04:09:30.608Z,64.00
2018-11-27T04:11:56.836Z,64.00
2018-11-27T04:14:23.079Z,63.90
2018-11-27T04:16:50.064Z,64.30
2018-11-27T04:19:17.149Z,64.30
2018-11-27T04:21:44.427Z,64.30
2018-11-27T04:24:10.674Z,64.30
2018-11-27T04:26:36.923Z,64.10
2018-11-27T04:29:03.228Z,64.10
2018-11-27T04:31:29.492Z,64.10
2018-11-27T04:33:55.735Z,63.70
2018-11-27T04:36:22.890Z,64.10
2018-11-27T04:38:49.116Z,64.80
2018-11-27T04:41:16.111Z,64.20
2018-11-27T04:43:42.344Z,63.80
2018-11-27T04:46:08.651Z,63.80
2018-11-27T04:48:34.958Z,63.90
2018-11-27T04:51:01.952Z,63.80
2018-11-27T04:53:28.203Z,63.80
2018-11-27T04:55:54.472Z,63.80
2018-11-27T04:58:21.452Z,64.00
2018-11-27T05:00:47.721Z,64.00
2018-11-27T05:03:13.981Z,64.00
2018-11-27T05:05:40.977Z,64.00
2018-11-27T05:08:07.219Z,64.00
2018-11-27T05:10:33.452Z,64.00
2018-11-27T05:13:00.454Z,64.20
2018-11-27T05:15:28.245Z,64.10
2018-11-27T05:17:54.491Z,64.00
2018-11-27T05:20:20.764Z,64.00
2018-11-27T05:22:46.992Z,64.10
2018-11-27T05:25:13.290Z,63.90
2018-11-27T05:27:40.299Z,64.10
2018-11-27T05:30:06.582Z,64.10
2018-11-27T05:32:32.837Z,64.10
2018-11-27T05:34:59.061Z,64.10
2018-11-27T05:37:25.339Z,64.20
2018-11-27T05:39:52.333Z,64.30
2018-11-27T05:42:18.590Z,64.30
2018-11-27T05:44:44.816Z,64.20
2018-11-27T05:47:11.057Z,64.00
2018-11-27T05:49:37.265Z,64.00
2018-11-27T05:52:03.529Z,64.10
2018-11-27T05:54:30.541Z,64.30
2018-11-27T05:56:56.747Z,64.30
2018-11-27T05:59:22.982Z,64.10
2018-11-27T06:01:49.961Z,64.10
2018-11-27T06:04:16.990Z,64.10
2018-11-27T06:06:43.233Z,64.10
2018-11-27T06:09:09.478Z,64.20
2018-11-27T06:11:35.756Z,64.30
2018-11-27T06:14:02.069Z,64.20
2018-11-27T06:16:28.304Z,64.10
2018-11-27T06:18:54.568Z,64.10
2018-11-27T06:21:20.897Z,64.20
2018-11-27T06:23:47.155Z,64.10
2018-11-27T06:26:13.457Z,64.10
2018-11-27T06:28:39.709Z,64.10
2018-11-27T06:31:05.956Z,64.00
2018-11-27T06:33:32.254Z,64.10
2018-11-27T06:35:59.244Z,63.50
2018-11-27T06:38:25.484Z,63.50
2018-11-27T06:40:51.726Z,63.60
2018-11-27T06:43:17.986Z,63.60
2018-11-27T06:45:45.013Z,63.50
2018-11-27T06:48:11.272Z,63.40
2018-11-27T06:50:38.273Z,63.10
2018-11-27T06:53:04.578Z,63.10
2018-11-27T06:55:30.855Z,63.10
2018-11-27T06:57:57.831Z,63.20
2018-11-27T07:00:24.121Z,63.20
2018-11-27T07:02:51.173Z,63.40
2018-11-27T07:05:17.516Z,63.40
2018-11-27T07:07:44.513Z,63.70
2018-11-27T07:10:10.799Z,63.30
2018-11-27T07:12:37.072Z,62.90
2018-11-27T07:15:03.333Z,62.80
2018-11-27T07:17:29.613Z,62.40
2018-11-27T07:19:55.838Z,61.90
2018-11-27T07:22:22.948Z,62.10
2018-11-27T07:24:49.933Z,62.40
2018-11-27T07:27:16.165Z,62.30
2018-11-27T07:29:42.452Z,62.40
2018-11-27T07:32:09.684Z,62.70
2018-11-27T07:34:35.754Z,62.60
2018-11-27T07:37:02.005Z,63.00
2018-11-27T07:39:28.272Z,63.20
2018-11-27T07:41:55.239Z,63.30
2018-11-27T07:44:21.484Z,63.30
2018-11-27T07:46:47.706Z,63.10
2018-11-27T07:49:13.997Z,62.90
2018-11-27T07:51:40.984Z,63.40
2018-11-27T07:54:07.377Z,63.30
2018-11-27T07:56:34.377Z,63.50
2018-11-27T07:59:00.669Z,63.40
2018-11-27T08:04:00.730Z,63.30
2018-11-27T08:06:27.000Z,63.30
2018-11-27T08:08:53.265Z,63.30
2018-11-27T08:11:19.532Z,63.10
2018-11-27T08:13:46.594Z,63.20
2018-11-27T08:16:12.868Z,63.20
2018-11-27T08:18:39.133Z,63.30
2018-11-27T08:21:05.527Z,63.30
2018-11-27T08:23:31.804Z,63.30
2018-11-27T08:25:58.077Z,63.20
2018-11-27T08:28:24.318Z,63.10
2018-11-27T08:30:50.588Z,63.10
2018-11-27T08:33:16.870Z,63.20
2018-11-27T08:35:43.148Z,63.20
2018-11-27T08:38:09.392Z,63.00
2018-11-27T08:40:35.657Z,63.00
2018-11-27T08:43:01.904Z,63.10
2018-11-27T08:45:28.196Z,63.20
2018-11-27T08:47:55.208Z,63.20
2018-11-27T08:50:21.512Z,63.10
2018-11-27T08:52:47.776Z,63.00
2018-11-27T08:55:14.025Z,63.20
2018-11-27T08:57:40.304Z,63.40
2018-11-27T09:00:06.604Z,63.50
2018-11-27T09:02:32.893Z,63.50
2018-11-27T09:04:59.145Z,64.00
2018-11-27T09:07:25.424Z,63.60
2018-11-27T09:09:51.658Z,63.40
2018-11-27T09:12:17.973Z,63.60
2018-11-27T09:14:44.297Z,63.60
2018-11-27T09:17:10.561Z,63.50
2018-11-27T09:19:37.547Z,63.80
2018-11-27T09:22:03.870Z,63.80
2018-11-27T09:24:30.184Z,63.50
2018-11-27T09:26:56.436Z,63.50
2018-11-27T09:29:22.683Z,63.50
2018-11-27T09:31:48.952Z,63.70
2018-11-27T09:34:15.980Z,63.30
2018-11-27T09:36:42.249Z,63.20
2018-11-27T09:39:08.533Z,63.20
2018-11-27T09:41:34.798Z,63.40
2018-11-27T09:44:01.780Z,63.60
2018-11-27T09:46:28.105Z,63.50
2018-11-27T09:48:54.379Z,63.40
2018-11-27T09:51:20.615Z,63.50
2018-11-27T09:53:47.625Z,63.70
2018-11-27T09:56:13.893Z,63.70
2018-11-27T09:58:40.916Z,63.90
2018-11-27T10:01:07.212Z,63.80
2018-11-27T10:03:33.440Z,64.00
2018-11-27T10:05:59.746Z,63.80
2018-11-27T10:08:26.008Z,63.80
2018-11-27T10:10:52.252Z,63.70
2018-11-27T10:13:19.290Z,64.00
2018-11-27T10:15:46.261Z,64.10
2018-11-27T10:18:12.544Z,64.10
2018-11-27T10:20:38.884Z,63.80
2018-11-27T10:23:05.165Z,64.00
2018-11-27T10:25:32.152Z,63.70
2018-11-27T10:27:58.442Z,63.60
2018-11-27T10:30:24.711Z,63.60
2018-11-27T10:32:51.718Z,63.20
2018-11-27T10:35:18.744Z,63.60
2018-11-27T10:37:45.008Z,63.50
2018-11-27T10:40:11.265Z,63.50
2018-11-27T10:42:39.088Z,62.80
2018-11-27T10:45:05.399Z,62.80
2018-11-27T10:47:32.410Z,63.00
2018-11-27T10:49:58.697Z,63.00
2018-11-27T10:52:25.038Z,63.50
2018-11-27T10:54:51.328Z,63.60
2018-11-27T10:57:17.589Z,63.90
2018-11-27T10:59:43.868Z,64.00
2018-11-27T11:02:10.201Z,63.60
2018-11-27T11:04:36.469Z,63.90
2018-11-27T11:07:02.797Z,64.10
2018-11-27T11:09:29.093Z,63.90
2018-11-27T11:11:59.275Z,63.70
2018-11-27T11:14:21.657Z,63.60
2018-11-27T11:16:47.913Z,63.80
2018-11-27T11:19:18.351Z,63.70
2018-11-27T11:21:42.012Z,63.70
2018-11-27T11:24:08.309Z,63.70
2018-11-27T11:26:35.326Z,63.20
2018-11-27T11:29:01.671Z,63.10
2018-11-27T11:31:28.661Z,63.30
2018-11-27T11:33:54.940Z,63.30
2018-11-27T11:36:21.980Z,61.70
2018-11-27T11:38:48.278Z,61.60
2018-11-27T11:41:14.508Z,60.60
2018-11-27T11:43:40.772Z,60.50
2018-11-27T11:46:07.800Z,61.20
2018-11-27T11:48:34.088Z,61.20
2018-11-27T11:51:00.356Z,61.70
2018-11-27T11:53:26.594Z,61.90
2018-11-27T11:55:53.200Z,62.60
2018-11-27T11:58:19.448Z,62.70
2018-11-27T12:00:45.743Z,62.00
2018-11-27T12:03:12.057Z,62.40
2018-11-27T12:05:39.085Z,62.80
2018-11-27T12:08:06.157Z,63.00
2018-11-27T12:10:32.444Z,63.00
2018-11-27T12:12:58.668Z,63.20
2018-11-27T12:15:25.724Z,63.10
2018-11-27T12:17:51.978Z,63.00
2018-11-27T12:20:18.970Z,63.10
2018-11-27T12:22:45.273Z,63.00
2018-11-27T12:25:11.606Z,63.10
2018-11-27T12:27:37.869Z,63.20
2018-11-27T12:30:04.129Z,63.00
2018-11-27T12:32:31.097Z,62.80
2018-11-27T12:34:57.376Z,62.80
2018-11-27T12:37:24.359Z,62.20
2018-11-27T12:39:50.649Z,62.80
2018-11-27T12:42:16.911Z,62.80
2018-11-27T12:44:43.917Z,62.60
2018-11-27T12:47:10.938Z,62.40
2018-11-27T12:49:37.201Z,62.40
2018-11-27T12:52:03.463Z,62.60
2018-11-27T12:54:30.476Z,63.10
2018-11-27T12:56:56.733Z,63.00
2018-11-27T12:59:22.984Z,62.80
2018-11-27T13:01:49.221Z,62.90
2018-11-27T13:04:15.527Z,63.00
2018-11-27T13:06:41.824Z,63.20
2018-11-27T13:09:08.116Z,62.90
2018-11-27T13:11:34.377Z,62.90
2018-11-27T13:14:00.697Z,63.20
2018-11-27T13:16:26.988Z,63.10
2018-11-27T13:18:53.256Z,63.50
2018-11-27T13:21:19.597Z,63.20
2018-11-27T13:23:45.884Z,63.40
2018-11-27T13:26:12.245Z,63.50
2018-11-27T13:28:38.561Z,63.00
2018-11-27T13:31:04.828Z,62.70
2018-11-27T13:33:31.102Z,63.30
2018-11-27T13:35:57.444Z,63.10
2018-11-27T13:38:23.701Z,63.10
2018-11-27T13:40:49.972Z,63.20
2018-11-27T13:43:16.276Z,63.00
2018-11-27T13:45:43.449Z,63.10
2018-11-27T13:48:09.704Z,63.10
2018-11-27T13:50:37.473Z,62.80
2018-11-27T13:53:05.227Z,63.20
2018-11-27T13:55:31.525Z,63.20
2018-11-27T13:57:57.793Z,63.30
2018-11-27T14:00:24.051Z,63.20
2018-11-27T14:02:51.077Z,63.10
2018-11-27T14:05:17.360Z,63.10
2018-11-27T14:07:43.648Z,63.20
2018-11-27T14:10:09.927Z,63.30
2018-11-27T14:12:36.208Z,63.20
2018-11-27T14:15:03.241Z,63.60
2018-11-27T14:17:29.525Z,63.40
2018-11-27T14:19:55.773Z,64.00
2018-11-27T14:22:25.097Z,63.30
2018-11-27T14:24:48.441Z,62.90
2018-11-27T14:27:14.711Z,62.60
2018-11-27T14:29:41.000Z,62.50
2018-11-27T14:32:07.259Z,62.60
2018-11-27T14:34:34.300Z,62.90
2018-11-27T14:37:01.285Z,62.90
2018-11-27T14:39:27.631Z,62.90
2018-11-27T14:41:53.880Z,62.80
2018-11-27T14:44:20.175Z,62.80
2018-11-27T14:46:46.420Z,63.10
2018-11-27T14:49:12.700Z,63.40
2018-11-27T14:51:39.691Z,63.50
2018-11-27T14:54:05.963Z,63.40
2018-11-27T14:56:33.834Z,63.50
2018-11-27T14:59:00.849Z,63.00
2018-11-27T15:01:27.117Z,63.00
2018-11-27T15:03:53.403Z,63.40
2018-11-27T15:06:19.631Z,63.10
2018-11-27T15:08:46.599Z,62.80
2018-11-27T15:11:12.946Z,62.80
2018-11-27T15:13:39.957Z,63.30
2018-11-27T15:16:06.298Z,63.20
2018-11-27T15:18:32.611Z,63.60
2018-11-27T15:20:58.872Z,63.50
2018-11-27T15:23:25.112Z,63.40
2018-11-27T15:25:52.123Z,63.20
2018-11-27T15:28:18.404Z,63.20
2018-11-27T15:30:44.723Z,63.50
2018-11-27T15:33:10.989Z,63.50
2018-11-27T15:35:37.225Z,63.40
2018-11-27T15:38:03.509Z,63.50
2018-11-27T15:40:29.772Z,63.60
2018-11-27T15:42:56.169Z,63.40
2018-11-27T15:45:22.500Z,63.30
2018-11-27T15:47:49.500Z,63.60
2018-11-27T15:50:15.765Z,63.60
2018-11-27T15:52:42.792Z,64.40
2018-11-27T15:55:09.837Z,64.50
2018-11-27T15:57:36.863Z,64.50
2018-11-27T16:00:03.172Z,64.50
2018-11-27T16:02:29.432Z,64.40
2018-11-27T16:04:55.669Z,64.70
2018-11-27T16:07:21.920Z,64.70
2018-11-27T16:09:48.877Z,64.90
2018-11-27T16:12:15.152Z,64.90
2018-11-27T16:14:41.419Z,65.00
2018-11-27T16:17:08.462Z,64.80
2018-11-27T16:19:34.676Z,64.80
2018-11-27T16:22:01.018Z,65.00
2018-11-27T16:24:28.085Z,64.80
2018-11-27T16:26:54.360Z,64.70
2018-11-27T16:29:20.628Z,64.90
2018-11-27T16:31:47.613Z,65.10
2018-11-27T16:34:13.866Z,64.80
2018-11-27T16:36:42.248Z,65.00
2018-11-27T16:39:08.533Z,64.90
2018-11-27T16:41:34.760Z,64.90
2018-11-27T16:44:01.053Z,64.70
2018-11-27T16:46:28.027Z,64.90
2018-11-27T16:48:54.301Z,64.80
2018-11-27T16:51:20.633Z,64.60
2018-11-27T16:53:46.881Z,64.40
2018-11-27T16:56:13.144Z,64.20
2018-11-27T16:58:39.416Z,64.30
2018-11-27T17:01:09.142Z,64.30
2018-11-27T17:03:31.978Z,64.60
2018-11-27T17:05:58.266Z,64.40
2018-11-27T17:08:24.499Z,64.50
2018-11-27T17:10:50.772Z,64.50
2018-11-27T17:13:17.112Z,64.60
2018-11-27T17:15:44.133Z,64.50
2018-11-27T17:18:11.141Z,64.40
2018-11-27T17:20:37.484Z,64.40
2018-11-27T17:23:03.800Z,65.00
2018-11-27T17:25:30.114Z,64.50
2018-11-27T17:27:56.402Z,64.60
2018-11-27T17:30:23.443Z,64.50
2018-11-27T17:32:49.686Z,64.40
2018-11-27T17:35:16.710Z,64.40
2018-11-27T17:37:43.041Z,64.40
2018-11-27T17:40:09.329Z,64.40
2018-11-27T17:42:35.600Z,64.50
2018-11-27T17:45:01.965Z,64.40
2018-11-27T17:47:28.191Z,64.20
2018-11-27T17:49:54.448Z,64.40
2018-11-27T17:52:20.722Z,64.40
2018-11-27T17:54:47.022Z,64.50
2018-11-27T17:57:13.284Z,64.60
2018-11-27T17:59:39.527Z,64.40
2018-11-27T18:02:06.596Z,64.10
2018-11-27T18:04:32.916Z,64.10
2018-11-27T18:06:59.230Z,64.40
2018-11-27T18:09:26.261Z,64.10
2018-11-27T18:11:52.523Z,64.80
2018-11-27T18:14:18.801Z,64.40
2018-11-27T18:16:45.041Z,64.20
2018-11-27T18:19:12.069Z,64.30
2018-11-27T18:21:38.413Z,64.20
2018-11-27T18:24:04.720Z,64.20
2018-11-27T18:26:31.025Z,64.60
2018-11-27T18:28:57.317Z,64.50
2018-11-27T18:31:24.317Z,64.20
2018-11-27T18:33:50.805Z,64.20
2018-11-27T18:36:17.091Z,64.40
2018-11-27T18:38:43.399Z,64.50
2018-11-27T18:41:09.656Z,65.40
2018-11-27T18:43:35.940Z,64.70
2018-11-27T18:46:02.211Z,64.50
2018-11-27T18:48:28.481Z,64.40
2018-11-27T18:50:54.762Z,64.50
2018-11-27T18:53:21.012Z,64.50
2018-11-27T18:55:47.276Z,64.30
2018-11-27T18:58:13.547Z,64.20
2018-11-27T19:00:39.797Z,64.90
2018-11-27T19:03:06.829Z,64.60
2018-11-27T19:05:33.121Z,64.60
2018-11-27T19:07:59.368Z,64.50
2018-11-27T19:10:25.657Z,64.70
2018-11-27T19:12:51.966Z,64.50
2018-11-27T19:15:19.034Z,64.40
2018-11-27T19:17:45.341Z,64.40
2018-11-27T19:20:12.400Z,64.20
2018-11-27T19:22:38.681Z,64.20
2018-11-27T19:25:05.008Z,64.50
2018-11-27T19:27:31.286Z,64.40
2018-11-27T19:29:57.568Z,64.30
2018-11-27T19:32:23.830Z,64.10
2018-11-27T19:34:50.850Z,63.70
2018-11-27T19:37:17.918Z,63.60
2018-11-27T19:39:44.920Z,64.00
2018-11-27T19:42:11.181Z,63.70
2018-11-27T19:44:37.443Z,63.70
2018-11-27T19:47:03.760Z,62.80
2018-11-27T19:49:30.043Z,62.70
2018-11-27T19:51:56.737Z,63.20
2018-11-27T19:54:23.044Z,62.80
2018-11-27T19:56:49.271Z,62.30
2018-11-27T19:59:16.295Z,62.40
2018-11-27T20:01:42.543Z,62.30
2018-11-27T20:04:08.801Z,62.00
2018-11-27T20:06:35.156Z,62.00
2018-11-27T20:09:01.520Z,62.30
2018-11-27T20:11:27.789Z,62.40
2018-11-27T20:13:54.082Z,62.00
2018-11-27T20:16:20.416Z,61.10
2018-11-27T20:18:46.712Z,61.50
2018-11-27T20:21:13.025Z,61.70
2018-11-27T20:23:39.371Z,61.40
2018-11-27T20:26:05.706Z,60.60
2018-11-27T20:28:32.035Z,62.00
2018-11-27T20:30:58.333Z,61.60
2018-11-27T20:33:24.585Z,61.70
2018-11-27T20:35:50.928Z,60.70
2018-11-27T20:38:18.110Z,61.90
2018-11-27T20:40:45.138Z,61.50
2018-11-27T20:43:11.404Z,61.40
2018-11-27T20:45:37.693Z,61.10
2018-11-27T20:48:04.012Z,61.30
2018-11-27T20:50:30.397Z,61.30
2018-11-27T20:52:56.719Z,61.20
2018-11-27T20:55:23.029Z,60.80
2018-11-27T20:57:50.073Z,59.30
2018-11-27T21:00:17.288Z,60.30
2018-11-27T21:02:44.602Z,60.60
2018-11-27T21:05:10.639Z,60.50
2018-11-27T21:07:36.920Z,61.00
2018-11-27T21:10:03.412Z,60.30
2018-11-27T21:12:30.469Z,59.70
2018-11-27T21:14:56.793Z,59.70
2018-11-27T21:17:23.445Z,60.10
2018-11-27T21:19:49.700Z,60.30
2018-11-27T21:22:16.075Z,60.90
2018-11-27T21:24:42.352Z,60.70
2018-11-27T21:27:08.730Z,60.00
2018-11-27T21:29:35.122Z,60.80
2018-11-27T21:32:02.189Z,59.60
2018-11-27T21:34:29.211Z,60.30
2018-11-27T21:36:56.491Z,60.40
2018-11-27T21:39:22.777Z,60.40
2018-11-27T21:41:49.071Z,60.50
2018-11-27T21:44:15.411Z,60.60
2018-11-27T21:46:41.672Z,60.50
2018-11-27T21:49:07.934Z,61.00
2018-11-27T21:51:34.203Z,61.10
2018-11-27T21:54:00.491Z,61.10
2018-11-27T21:56:26.782Z,60.80
2018-11-27T21:58:54.293Z,60.80
2018-11-27T22:01:20.533Z,61.30
2018-11-27T22:03:46.783Z,61.60
2018-11-27T22:06:13.125Z,61.70
2018-11-27T22:08:39.400Z,60.90
2018-11-27T22:11:05.673Z,60.70
2018-11-27T22:13:31.922Z,61.40
2018-11-27T22:15:58.195Z,61.70
2018-11-27T22:18:24.433Z,61.90
2018-11-27T22:20:50.960Z,62.10
2018-11-27T22:23:17.249Z,62.30
2018-11-27T22:25:43.518Z,62.50
2018-11-27T22:28:09.832Z,62.80
2018-11-27T22:30:36.155Z,62.80
2018-11-27T22:33:02.440Z,62.50
2018-11-27T22:35:28.761Z,62.60
2018-11-27T22:37:55.341Z,62.70
2018-11-27T22:40:22.385Z,61.50
2018-11-27T22:42:48.652Z,61.50
2018-11-27T22:45:14.932Z,62.20
2018-11-27T22:47:41.957Z,62.50
2018-11-27T22:50:08.259Z,62.70
2018-11-27T22:52:34.535Z,62.60
2018-11-27T22:55:01.529Z,62.10
2018-11-27T22:57:27.776Z,62.00
2018-11-27T22:59:54.806Z,62.50
2018-11-27T23:02:21.049Z,62.50
2018-11-27T23:04:47.299Z,62.60
2018-11-27T23:07:14.364Z,62.00
2018-11-27T23:09:40.642Z,61.90
2018-11-27T23:12:06.908Z,62.10
2018-11-27T23:14:33.155Z,62.30
2018-11-27T23:16:59.400Z,62.50
2018-11-27T23:19:25.916Z,62.80
2018-11-27T23:21:52.232Z,62.90
2018-11-27T23:24:19.243Z,63.00
2018-11-27T23:26:45.615Z,62.90
2018-11-27T23:29:11.888Z,63.20
2018-11-27T23:31:38.126Z,62.90
2018-11-27T23:34:05.146Z,62.70
2018-11-27T23:36:31.398Z,62.70
2018-11-27T23:38:57.635Z,63.00
2018-11-27T23:41:23.874Z,63.80
2018-11-27T23:43:50.880Z,63.50
2018-11-27T23:46:17.496Z,63.50
2018-11-27T23:48:43.784Z,63.20
2018-11-27T23:51:10.055Z,63.70
2018-11-27T23:53:36.332Z,64.00
2018-11-27T23:56:02.633Z,64.10
2018-11-27T23:58:28.864Z,64.10
